Aérodrome :
LOGIN :

S'inscrire | Disclaimer

   EN    FR    IT 

 










Légende :    VFR   VFR Marginal   IFR   IFR Intensif   IFR Très Intensif
Visi : 
Plafond : 
>= 8 km
>= 3000ft
5 à 8 km
1000 à 3000 ft
1500m à 5 km
500 à 1000 ft
800 à 1500m
200 à 500 ft
< 800m
< 200 ft
Symboles :   Orages  Brouillard  Fortes neiges  Fortes précipitations  Vent > 20 kt
SIGMETs :   Divers  Orages  Givrage  Turbulence  Onde Orograph.  Cendres Volcan.







- Altitude de l'aérodrome : 31 ft
- Code IATA : INV
- Voir les cartes d'approche


EGPE - Inverness

DERNIER METAR :
  • 161850Z 23014KT 9999 FEW015 BKN048 15/09 Q1005

METARs EXPIRÉS :
  • 161820Z 25014KT 9999 FEW015 BKN046 15/09 Q1004
  • 161750Z 26014KT 9999 FEW015 SCT048 16/10 Q1004
  • 161720Z 25017KT 9999 VCSH FEW015 FEW028CB SCT046 15/09 Q1004
  • 161650Z 26013KT 9999 VCSH FEW018 FEW028CB SCT044 16/10 Q1004
  • 161620Z 28011KT 9999 VCSH FEW020 FEW032CB SCT043 16/10 Q1003

TAF TAF EGPE
Valide du 16 à 18h jusqu'au 17 à 03h UTC


161658Z 1618/1703 24012KT 9999 FEW020
PROB40
TEMPO 1618/1703 7000 SHRA
ATIS : +44 1667 464 255
Pas de NOTAMs connus pour ce terrain.



MET'MAP, la Météo Aéronautique d'un coup d'oeil ! - Copyright ORBIFLY Décembre 2007 - Disclaimer

ORBIFLY MET'MAP TEAM :

Programmation & Développement : Alexandra Zaïnal
Conception & Développement : Baudouin d'Aumeries
Co-Programmation & Développement : Marc-Olivier Méhu
Soutien technique & logistique : Manuel Goepfert

Contact : metmap@orbifly.com




SOURCES & CREDITS :

   NOAA